sensor_id;sensor_type;location;lat;lon;timestamp;P1;durP1;ratioP1;P2;durP2;ratioP2
22652;SDS011;11493;43.344;26.226;2023-07-31T00:00:11;2.28;;;1.17;;
22652;SDS011;11493;43.344;26.226;2023-07-31T00:02:39;3.60;;;1.20;;
22652;SDS011;11493;43.344;26.226;2023-07-31T00:05:06;3.10;;;1.23;;
22652;SDS011;11493;43.344;26.226;2023-07-31T00:07:35;1.55;;;1.20;;
22652;SDS011;11493;43.344;26.226;2023-07-31T00:10:02;3.47;;;1.38;;
22652;SDS011;11493;43.344;26.226;2023-07-31T00:12:29;1.60;;;1.20;;
22652;SDS011;11493;43.344;26.226;2023-07-31T00:14:56;1.92;;;1.42;;
22652;SDS011;11493;43.344;26.226;2023-07-31T00:17:23;4.20;;;1.35;;
22652;SDS011;11493;43.344;26.226;2023-07-31T00:19:50;1.48;;;1.10;;
22652;SDS011;11493;43.344;26.226;2023-07-31T00:22:17;3.35;;;1.20;;
22652;SDS011;11493;43.344;26.226;2023-07-31T00:24:44;2.58;;;1.25;;
22652;SDS011;11493;43.344;26.226;2023-07-31T00:27:11;5.13;;;1.30;;
22652;SDS011;11493;43.344;26.226;2023-07-31T00:29:38;4.15;;;1.40;;
22652;SDS011;11493;43.344;26.226;2023-07-31T00:32:05;1.38;;;1.20;;
22652;SDS011;11493;43.344;26.226;2023-07-31T00:34:32;1.67;;;1.50;;
22652;SDS011;11493;43.344;26.226;2023-07-31T00:37:01;2.45;;;1.35;;
22652;SDS011;11493;43.344;26.226;2023-07-31T00:39:29;5.32;;;2.00;;
22652;SDS011;11493;43.344;26.226;2023-07-31T00:41:58;2.10;;;1.83;;
22652;SDS011;11493;43.344;26.226;2023-07-31T00:44:25;2.53;;;2.25;;
22652;SDS011;11493;43.344;26.226;2023-07-31T00:46:52;4.32;;;2.30;;
22652;SDS011;11493;43.344;26.226;2023-07-31T00:49:21;2.38;;;2.17;;
22652;SDS011;11493;43.344;26.226;2023-07-31T00:51:49;8.15;;;2.20;;
22652;SDS011;11493;43.344;26.226;2023-07-31T00:54:17;6.10;;;2.05;;
22652;SDS011;11493;43.344;26.226;2023-07-31T00:56:47;3.45;;;2.35;;
22652;SDS011;11493;43.344;26.226;2023-07-31T00:59:15;3.15;;;2.63;;
22652;SDS011;11493;43.344;26.226;2023-07-31T01:01:42;5.03;;;3.10;;
22652;SDS011;11493;43.344;26.226;2023-07-31T01:04:09;6.07;;;2.53;;
22652;SDS011;11493;43.344;26.226;2023-07-31T01:06:44;3.42;;;2.55;;
22652;SDS011;11493;43.344;26.226;2023-07-31T01:09:20;2.67;;;2.38;;
22652;SDS011;11493;43.344;26.226;2023-07-31T01:12:03;4.05;;;2.67;;
22652;SDS011;11493;43.344;26.226;2023-07-31T01:14:33;7.22;;;2.97;;
22652;SDS011;11493;43.344;26.226;2023-07-31T01:17:00;2.65;;;2.45;;
22652;SDS011;11493;43.344;26.226;2023-07-31T01:19:27;6.50;;;2.75;;
22652;SDS011;11493;43.344;26.226;2023-07-31T01:27:35;4.00;;;2.63;;
22652;SDS011;11493;43.344;26.226;2023-07-31T01:30:11;5.13;;;2.70;;
22652;SDS011;11493;43.344;26.226;2023-07-31T01:32:47;3.42;;;3.10;;
22652;SDS011;11493;43.344;26.226;2023-07-31T01:35:16;3.92;;;3.22;;
22652;SDS011;11493;43.344;26.226;2023-07-31T01:37:43;4.90;;;2.83;;
22652;SDS011;11493;43.344;26.226;2023-07-31T01:40:11;7.68;;;2.90;;
22652;SDS011;11493;43.344;26.226;2023-07-31T01:42:38;4.47;;;3.30;;
22652;SDS011;11493;43.344;26.226;2023-07-31T01:45:05;7.80;;;3.20;;
22652;SDS011;11493;43.344;26.226;2023-07-31T01:47:33;9.48;;;3.17;;
22652;SDS011;11493;43.344;26.226;2023-07-31T01:50:00;5.47;;;3.40;;
22652;SDS011;11493;43.344;26.226;2023-07-31T01:52:27;5.00;;;2.80;;
22652;SDS011;11493;43.344;26.226;2023-07-31T01:54:54;6.63;;;2.83;;
22652;SDS011;11493;43.344;26.226;2023-07-31T01:57:23;4.40;;;2.50;;
22652;SDS011;11493;43.344;26.226;2023-07-31T01:59:50;4.47;;;2.42;;
22652;SDS011;11493;43.344;26.226;2023-07-31T02:02:17;2.30;;;2.15;;
22652;SDS011;11493;43.344;26.226;2023-07-31T02:04:44;3.42;;;2.05;;
22652;SDS011;11493;43.344;26.226;2023-07-31T02:07:11;2.40;;;2.10;;
22652;SDS011;11493;43.344;26.226;2023-07-31T02:09:38;2.92;;;2.63;;
22652;SDS011;11493;43.344;26.226;2023-07-31T02:12:05;8.45;;;2.45;;
22652;SDS011;11493;43.344;26.226;2023-07-31T02:14:35;6.22;;;1.95;;
22652;SDS011;11493;43.344;26.226;2023-07-31T02:17:02;4.22;;;2.63;;
22652;SDS011;11493;43.344;26.226;2023-07-31T02:19:29;3.58;;;2.90;;
22652;SDS011;11493;43.344;26.226;2023-07-31T02:21:57;4.20;;;2.75;;
22652;SDS011;11493;43.344;26.226;2023-07-31T02:24:24;3.67;;;2.78;;
22652;SDS011;11493;43.344;26.226;2023-07-31T02:26:51;6.68;;;2.78;;
22652;SDS011;11493;43.344;26.226;2023-07-31T02:29:18;4.93;;;2.75;;
22652;SDS011;11493;43.344;26.226;2023-07-31T02:31:45;6.97;;;2.58;;
22652;SDS011;11493;43.344;26.226;2023-07-31T02:34:12;2.67;;;2.47;;
22652;SDS011;11493;43.344;26.226;2023-07-31T02:36:39;2.80;;;2.60;;
22652;SDS011;11493;43.344;26.226;2023-07-31T02:39:06;3.72;;;3.10;;
22652;SDS011;11493;43.344;26.226;2023-07-31T02:41:34;4.13;;;2.58;;
22652;SDS011;11493;43.344;26.226;2023-07-31T02:44:00;5.32;;;2.28;;
22652;SDS011;11493;43.344;26.226;2023-07-31T02:46:28;3.92;;;2.42;;
22652;SDS011;11493;43.344;26.226;2023-07-31T02:48:54;4.45;;;3.08;;
22652;SDS011;11493;43.344;26.226;2023-07-31T02:51:21;3.53;;;2.63;;
22652;SDS011;11493;43.344;26.226;2023-07-31T02:53:48;5.85;;;2.80;;
22652;SDS011;11493;43.344;26.226;2023-07-31T02:56:16;3.50;;;3.20;;
22652;SDS011;11493;43.344;26.226;2023-07-31T02:58:43;3.50;;;3.10;;
22652;SDS011;11493;43.344;26.226;2023-07-31T03:01:10;3.47;;;3.17;;
22652;SDS011;11493;43.344;26.226;2023-07-31T03:03:37;7.07;;;3.20;;
22652;SDS011;11493;43.344;26.226;2023-07-31T03:06:04;3.88;;;3.47;;
22652;SDS011;11493;43.344;26.226;2023-07-31T03:08:31;4.63;;;3.40;;
22652;SDS011;11493;43.344;26.226;2023-07-31T03:10:58;4.82;;;3.45;;
22652;SDS011;11493;43.344;26.226;2023-07-31T03:13:26;6.03;;;4.40;;
22652;SDS011;11493;43.344;26.226;2023-07-31T03:15:53;6.85;;;4.07;;
22652;SDS011;11493;43.344;26.226;2023-07-31T03:18:20;6.57;;;4.65;;
22652;SDS011;11493;43.344;26.226;2023-07-31T03:20:47;4.90;;;4.50;;
22652;SDS011;11493;43.344;26.226;2023-07-31T03:23:15;5.00;;;4.40;;
22652;SDS011;11493;43.344;26.226;2023-07-31T03:25:54;6.15;;;5.03;;
22652;SDS011;11493;43.344;26.226;2023-07-31T03:28:27;4.43;;;4.13;;
22652;SDS011;11493;43.344;26.226;2023-07-31T03:30:54;7.53;;;5.35;;
22652;SDS011;11493;43.344;26.226;2023-07-31T03:33:21;9.95;;;5.15;;
22652;SDS011;11493;43.344;26.226;2023-07-31T03:35:48;9.93;;;5.65;;
22652;SDS011;11493;43.344;26.226;2023-07-31T03:38:15;8.18;;;6.22;;
22652;SDS011;11493;43.344;26.226;2023-07-31T03:40:43;10.52;;;6.78;;
22652;SDS011;11493;43.344;26.226;2023-07-31T03:43:10;6.28;;;5.75;;
22652;SDS011;11493;43.344;26.226;2023-07-31T03:45:38;6.75;;;6.15;;
22652;SDS011;11493;43.344;26.226;2023-07-31T03:48:06;10.77;;;6.57;;
22652;SDS011;11493;43.344;26.226;2023-07-31T03:50:34;6.50;;;6.00;;
22652;SDS011;11493;43.344;26.226;2023-07-31T03:53:01;8.75;;;6.70;;
22652;SDS011;11493;43.344;26.226;2023-07-31T03:55:28;9.80;;;6.75;;
22652;SDS011;11493;43.344;26.226;2023-07-31T03:57:55;9.20;;;6.65;;
22652;SDS011;11493;43.344;26.226;2023-07-31T04:00:22;7.55;;;6.75;;
22652;SDS011;11493;43.344;26.226;2023-07-31T04:02:49;12.48;;;7.22;;
22652;SDS011;11493;43.344;26.226;2023-07-31T04:05:16;10.95;;;7.57;;
22652;SDS011;11493;43.344;26.226;2023-07-31T04:07:43;9.13;;;7.20;;
22652;SDS011;11493;43.344;26.226;2023-07-31T04:10:10;8.00;;;6.82;;
22652;SDS011;11493;43.344;26.226;2023-07-31T04:12:39;13.45;;;7.80;;
22652;SDS011;11493;43.344;26.226;2023-07-31T04:15:06;8.10;;;6.90;;
22652;SDS011;11493;43.344;26.226;2023-07-31T04:17:33;6.85;;;6.20;;
22652;SDS011;11493;43.344;26.226;2023-07-31T04:20:00;9.20;;;7.28;;
22652;SDS011;11493;43.344;26.226;2023-07-31T04:22:28;8.38;;;7.38;;
22652;SDS011;11493;43.344;26.226;2023-07-31T04:24:55;7.72;;;7.03;;
22652;SDS011;11493;43.344;26.226;2023-07-31T04:27:22;13.15;;;7.90;;
22652;SDS011;11493;43.344;26.226;2023-07-31T04:29:49;9.18;;;8.20;;
22652;SDS011;11493;43.344;26.226;2023-07-31T04:32:16;11.70;;;9.30;;
22652;SDS011;11493;43.344;26.226;2023-07-31T04:34:43;9.57;;;8.65;;
22652;SDS011;11493;43.344;26.226;2023-07-31T04:37:10;8.43;;;7.82;;
22652;SDS011;11493;43.344;26.226;2023-07-31T04:39:37;11.43;;;8.90;;
22652;SDS011;11493;43.344;26.226;2023-07-31T04:42:06;14.85;;;9.73;;
22652;SDS011;11493;43.344;26.226;2023-07-31T04:44:33;10.02;;;8.98;;
22652;SDS011;11493;43.344;26.226;2023-07-31T04:47:00;13.93;;;9.85;;
22652;SDS011;11493;43.344;26.226;2023-07-31T04:49:28;11.68;;;10.57;;
22652;SDS011;11493;43.344;26.226;2023-07-31T04:51:55;11.50;;;10.13;;
22652;SDS011;11493;43.344;26.226;2023-07-31T04:54:22;12.05;;;10.73;;
22652;SDS011;11493;43.344;26.226;2023-07-31T04:56:52;11.88;;;10.05;;
22652;SDS011;11493;43.344;26.226;2023-07-31T04:59:20;11.93;;;10.77;;
22652;SDS011;11493;43.344;26.226;2023-07-31T05:01:47;15.85;;;10.90;;
22652;SDS011;11493;43.344;26.226;2023-07-31T05:04:15;12.70;;;10.68;;
22652;SDS011;11493;43.344;26.226;2023-07-31T05:06:42;11.55;;;10.38;;
22652;SDS011;11493;43.344;26.226;2023-07-31T05:09:09;12.40;;;11.15;;
22652;SDS011;11493;43.344;26.226;2023-07-31T05:11:37;11.90;;;10.70;;
22652;SDS011;11493;43.344;26.226;2023-07-31T05:14:04;11.38;;;10.57;;
22652;SDS011;11493;43.344;26.226;2023-07-31T05:16:31;11.77;;;10.75;;
22652;SDS011;11493;43.344;26.226;2023-07-31T05:18:58;12.43;;;11.32;;
22652;SDS011;11493;43.344;26.226;2023-07-31T05:21:26;13.15;;;11.85;;
22652;SDS011;11493;43.344;26.226;2023-07-31T05:23:53;11.23;;;10.02;;
22652;SDS011;11493;43.344;26.226;2023-07-31T05:26:21;13.40;;;12.00;;
22652;SDS011;11493;43.344;26.226;2023-07-31T05:28:49;11.90;;;11.00;;
22652;SDS011;11493;43.344;26.226;2023-07-31T05:31:17;12.55;;;11.43;;
22652;SDS011;11493;43.344;26.226;2023-07-31T05:33:45;12.75;;;11.75;;
22652;SDS011;11493;43.344;26.226;2023-07-31T05:36:14;15.23;;;13.85;;
22652;SDS011;11493;43.344;26.226;2023-07-31T05:38:41;15.52;;;13.93;;
22652;SDS011;11493;43.344;26.226;2023-07-31T05:41:11;15.73;;;14.07;;
22652;SDS011;11493;43.344;26.226;2023-07-31T05:43:39;17.75;;;14.85;;
22652;SDS011;11493;43.344;26.226;2023-07-31T05:46:06;13.48;;;12.38;;
22652;SDS011;11493;43.344;26.226;2023-07-31T05:48:36;11.05;;;10.00;;
22652;SDS011;11493;43.344;26.226;2023-07-31T05:51:03;12.45;;;11.35;;
22652;SDS011;11493;43.344;26.226;2023-07-31T05:53:30;10.43;;;9.63;;
22652;SDS011;11493;43.344;26.226;2023-07-31T05:55:58;11.50;;;10.45;;
22652;SDS011;11493;43.344;26.226;2023-07-31T05:58:26;11.68;;;10.48;;
22652;SDS011;11493;43.344;26.226;2023-07-31T06:00:53;10.60;;;9.70;;
22652;SDS011;11493;43.344;26.226;2023-07-31T06:03:20;10.75;;;9.77;;
22652;SDS011;11493;43.344;26.226;2023-07-31T06:05:47;10.07;;;9.10;;
22652;SDS011;11493;43.344;26.226;2023-07-31T06:08:14;9.68;;;8.88;;
22652;SDS011;11493;43.344;26.226;2023-07-31T06:10:41;9.55;;;8.85;;
22652;SDS011;11493;43.344;26.226;2023-07-31T06:13:09;12.25;;;9.90;;
22652;SDS011;11493;43.344;26.226;2023-07-31T06:15:36;11.00;;;10.07;;
22652;SDS011;11493;43.344;26.226;2023-07-31T06:18:03;10.20;;;9.43;;
22652;SDS011;11493;43.344;26.226;2023-07-31T06:20:31;11.05;;;10.25;;
22652;SDS011;11493;43.344;26.226;2023-07-31T06:22:58;10.70;;;9.80;;
22652;SDS011;11493;43.344;26.226;2023-07-31T06:25:25;11.05;;;10.15;;
22652;SDS011;11493;43.344;26.226;2023-07-31T06:27:52;9.40;;;8.60;;
22652;SDS011;11493;43.344;26.226;2023-07-31T06:30:19;9.18;;;8.43;;
22652;SDS011;11493;43.344;26.226;2023-07-31T06:32:46;10.13;;;9.43;;
22652;SDS011;11493;43.344;26.226;2023-07-31T06:35:14;9.88;;;9.13;;
22652;SDS011;11493;43.344;26.226;2023-07-31T06:37:41;9.77;;;9.07;;
22652;SDS011;11493;43.344;26.226;2023-07-31T06:40:10;11.95;;;9.88;;
22652;SDS011;11493;43.344;26.226;2023-07-31T06:42:37;9.55;;;8.82;;
22652;SDS011;11493;43.344;26.226;2023-07-31T06:45:05;12.82;;;9.38;;
22652;SDS011;11493;43.344;26.226;2023-07-31T06:47:33;11.25;;;10.35;;
22652;SDS011;11493;43.344;26.226;2023-07-31T06:50:00;11.27;;;10.48;;
22652;SDS011;11493;43.344;26.226;2023-07-31T06:52:28;11.70;;;10.70;;
22652;SDS011;11493;43.344;26.226;2023-07-31T06:55:09;10.90;;;10.10;;
22652;SDS011;11493;43.344;26.226;2023-07-31T06:57:47;11.90;;;10.90;;
22652;SDS011;11493;43.344;26.226;2023-07-31T07:00:16;12.85;;;11.65;;
22652;SDS011;11493;43.344;26.226;2023-07-31T07:02:44;11.90;;;10.70;;
22652;SDS011;11493;43.344;26.226;2023-07-31T07:05:11;11.90;;;11.00;;
22652;SDS011;11493;43.344;26.226;2023-07-31T07:07:40;12.80;;;11.70;;
22652;SDS011;11493;43.344;26.226;2023-07-31T07:10:07;13.55;;;12.13;;
22652;SDS011;11493;43.344;26.226;2023-07-31T07:12:35;12.57;;;11.57;;
22652;SDS011;11493;43.344;26.226;2023-07-31T07:15:03;13.23;;;11.90;;
22652;SDS011;11493;43.344;26.226;2023-07-31T07:17:30;13.80;;;12.70;;
22652;SDS011;11493;43.344;26.226;2023-07-31T07:19:58;12.93;;;11.63;;
22652;SDS011;11493;43.344;26.226;2023-07-31T07:22:26;12.00;;;11.02;;
22652;SDS011;11493;43.344;26.226;2023-07-31T07:24:56;14.27;;;13.05;;
22652;SDS011;11493;43.344;26.226;2023-07-31T07:27:24;14.02;;;12.70;;
22652;SDS011;11493;43.344;26.226;2023-07-31T07:29:51;13.82;;;12.50;;
22652;SDS011;11493;43.344;26.226;2023-07-31T07:32:19;13.50;;;12.30;;
22652;SDS011;11493;43.344;26.226;2023-07-31T07:34:48;15.10;;;13.48;;
22652;SDS011;11493;43.344;26.226;2023-07-31T07:37:16;14.82;;;13.35;;
22652;SDS011;11493;43.344;26.226;2023-07-31T07:39:43;13.82;;;12.52;;
22652;SDS011;11493;43.344;26.226;2023-07-31T07:42:11;14.73;;;13.52;;
22652;SDS011;11493;43.344;26.226;2023-07-31T07:44:38;13.32;;;12.18;;
22652;SDS011;11493;43.344;26.226;2023-07-31T07:47:05;14.75;;;13.15;;
22652;SDS011;11493;43.344;26.226;2023-07-31T07:49:34;14.75;;;13.38;;
22652;SDS011;11493;43.344;26.226;2023-07-31T07:52:02;14.23;;;12.98;;
22652;SDS011;11493;43.344;26.226;2023-07-31T07:54:30;13.52;;;12.43;;
22652;SDS011;11493;43.344;26.226;2023-07-31T07:56:57;14.98;;;13.38;;
22652;SDS011;11493;43.344;26.226;2023-07-31T07:59:24;14.27;;;13.00;;
22652;SDS011;11493;43.344;26.226;2023-07-31T08:01:55;14.80;;;13.40;;
22652;SDS011;11493;43.344;26.226;2023-07-31T08:04:25;13.50;;;12.13;;
22652;SDS011;11493;43.344;26.226;2023-07-31T08:06:52;14.20;;;13.13;;
22652;SDS011;11493;43.344;26.226;2023-07-31T08:09:19;14.23;;;13.13;;
22652;SDS011;11493;43.344;26.226;2023-07-31T08:11:47;15.02;;;13.57;;
22652;SDS011;11493;43.344;26.226;2023-07-31T08:14:14;15.80;;;13.23;;
22652;SDS011;11493;43.344;26.226;2023-07-31T08:16:41;14.43;;;12.98;;
22652;SDS011;11493;43.344;26.226;2023-07-31T08:19:09;13.25;;;12.15;;
22652;SDS011;11493;43.344;26.226;2023-07-31T08:21:36;13.57;;;12.52;;
22652;SDS011;11493;43.344;26.226;2023-07-31T08:24:03;12.63;;;11.63;;
22652;SDS011;11493;43.344;26.226;2023-07-31T08:26:30;11.95;;;10.93;;
22652;SDS011;11493;43.344;26.226;2023-07-31T08:28:58;17.88;;;13.10;;
22652;SDS011;11493;43.344;26.226;2023-07-31T08:31:25;14.15;;;12.35;;
22652;SDS011;11493;43.344;26.226;2023-07-31T08:33:53;12.95;;;11.80;;
22652;SDS011;11493;43.344;26.226;2023-07-31T08:36:20;13.20;;;11.98;;
22652;SDS011;11493;43.344;26.226;2023-07-31T08:38:47;12.63;;;11.60;;
22652;SDS011;11493;43.344;26.226;2023-07-31T08:41:14;13.68;;;12.48;;
22652;SDS011;11493;43.344;26.226;2023-07-31T08:43:47;13.13;;;12.10;;
22652;SDS011;11493;43.344;26.226;2023-07-31T08:46:16;12.95;;;11.80;;
22652;SDS011;11493;43.344;26.226;2023-07-31T08:48:43;14.45;;;12.13;;
22652;SDS011;11493;43.344;26.226;2023-07-31T08:51:10;13.15;;;11.75;;
22652;SDS011;11493;43.344;26.226;2023-07-31T08:53:47;11.93;;;10.85;;
22652;SDS011;11493;43.344;26.226;2023-07-31T08:56:44;10.73;;;9.70;;
22652;SDS011;11493;43.344;26.226;2023-07-31T08:59:15;10.43;;;9.43;;
22652;SDS011;11493;43.344;26.226;2023-07-31T09:01:46;11.07;;;10.07;;
22652;SDS011;11493;43.344;26.226;2023-07-31T09:04:17;13.27;;;9.98;;
22652;SDS011;11493;43.344;26.226;2023-07-31T09:06:46;10.80;;;10.02;;
22652;SDS011;11493;43.344;26.226;2023-07-31T09:09:15;10.63;;;9.70;;
22652;SDS011;11493;43.344;26.226;2023-07-31T09:11:43;13.18;;;10.05;;
22652;SDS011;11493;43.344;26.226;2023-07-31T09:14:11;11.10;;;10.05;;
22652;SDS011;11493;43.344;26.226;2023-07-31T09:19:46;11.63;;;10.63;;
22652;SDS011;11493;43.344;26.226;2023-07-31T09:22:13;10.68;;;9.82;;
22652;SDS011;11493;43.344;26.226;2023-07-31T09:24:40;11.52;;;10.50;;
22652;SDS011;11493;43.344;26.226;2023-07-31T09:27:07;12.15;;;11.13;;
22652;SDS011;11493;43.344;26.226;2023-07-31T09:29:34;11.30;;;10.35;;
22652;SDS011;11493;43.344;26.226;2023-07-31T09:32:35;10.60;;;9.70;;
22652;SDS011;11493;43.344;26.226;2023-07-31T09:34:57;10.98;;;9.95;;
22652;SDS011;11493;43.344;26.226;2023-07-31T09:37:24;11.93;;;10.02;;
22652;SDS011;11493;43.344;26.226;2023-07-31T09:39:52;10.85;;;9.75;;
22652;SDS011;11493;43.344;26.226;2023-07-31T09:42:27;10.15;;;9.30;;
22652;SDS011;11493;43.344;26.226;2023-07-31T09:45:01;10.73;;;9.68;;
22652;SDS011;11493;43.344;26.226;2023-07-31T09:47:36;11.73;;;10.02;;
22652;SDS011;11493;43.344;26.226;2023-07-31T09:50:12;9.95;;;9.07;;
22652;SDS011;11493;43.344;26.226;2023-07-31T09:52:43;10.03;;;9.13;;
22652;SDS011;11493;43.344;26.226;2023-07-31T09:55:10;10.48;;;9.73;;
22652;SDS011;11493;43.344;26.226;2023-07-31T09:57:39;10.10;;;9.43;;
22652;SDS011;11493;43.344;26.226;2023-07-31T10:00:08;9.75;;;8.95;;
22652;SDS011;11493;43.344;26.226;2023-07-31T10:02:40;9.55;;;8.40;;
22652;SDS011;11493;43.344;26.226;2023-07-31T10:05:08;9.80;;;8.90;;
22652;SDS011;11493;43.344;26.226;2023-07-31T10:07:39;10.27;;;8.88;;
22652;SDS011;11493;43.344;26.226;2023-07-31T10:10:12;13.18;;;8.00;;
22652;SDS011;11493;43.344;26.226;2023-07-31T10:12:41;8.73;;;7.88;;
22652;SDS011;11493;43.344;26.226;2023-07-31T10:15:10;9.65;;;8.75;;
22652;SDS011;11493;43.344;26.226;2023-07-31T10:17:38;9.23;;;8.43;;
22652;SDS011;11493;43.344;26.226;2023-07-31T10:20:05;8.88;;;7.90;;
22652;SDS011;11493;43.344;26.226;2023-07-31T10:22:34;8.77;;;7.93;;
22652;SDS011;11493;43.344;26.226;2023-07-31T10:25:01;7.82;;;7.13;;
22652;SDS011;11493;43.344;26.226;2023-07-31T10:27:29;8.15;;;7.45;;
22652;SDS011;11493;43.344;26.226;2023-07-31T10:29:56;7.85;;;7.13;;
22652;SDS011;11493;43.344;26.226;2023-07-31T10:32:25;8.07;;;7.47;;
22652;SDS011;11493;43.344;26.226;2023-07-31T10:34:53;9.13;;;8.00;;
22652;SDS011;11493;43.344;26.226;2023-07-31T10:37:28;9.43;;;7.72;;
22652;SDS011;11493;43.344;26.226;2023-07-31T10:39:57;8.57;;;7.97;;
22652;SDS011;11493;43.344;26.226;2023-07-31T10:42:31;8.25;;;7.45;;
22652;SDS011;11493;43.344;26.226;2023-07-31T10:45:06;8.13;;;7.53;;
22652;SDS011;11493;43.344;26.226;2023-07-31T10:47:37;12.55;;;7.47;;
22652;SDS011;11493;43.344;26.226;2023-07-31T10:52:55;9.05;;;7.57;;
22652;SDS011;11493;43.344;26.226;2023-07-31T10:55:25;8.63;;;7.78;;
22652;SDS011;11493;43.344;26.226;2023-07-31T10:58:09;8.05;;;7.30;;
22652;SDS011;11493;43.344;26.226;2023-07-31T11:00:43;7.43;;;6.82;;
22652;SDS011;11493;43.344;26.226;2023-07-31T11:05:59;8.73;;;8.02;;
22652;SDS011;11493;43.344;26.226;2023-07-31T11:08:31;6.97;;;6.47;;
22652;SDS011;11493;43.344;26.226;2023-07-31T11:13:39;8.10;;;7.40;;
22652;SDS011;11493;43.344;26.226;2023-07-31T11:16:16;7.72;;;7.15;;
22652;SDS011;11493;43.344;26.226;2023-07-31T11:18:49;7.65;;;7.05;;
22652;SDS011;11493;43.344;26.226;2023-07-31T11:21:19;7.25;;;6.55;;
22652;SDS011;11493;43.344;26.226;2023-07-31T11:23:49;8.10;;;7.30;;
22652;SDS011;11493;43.344;26.226;2023-07-31T11:26:20;5.43;;;5.05;;
22652;SDS011;11493;43.344;26.226;2023-07-31T11:28:48;6.38;;;5.85;;
22652;SDS011;11493;43.344;26.226;2023-07-31T11:31:17;6.97;;;6.47;;
22652;SDS011;11493;43.344;26.226;2023-07-31T11:33:45;6.22;;;5.72;;
22652;SDS011;11493;43.344;26.226;2023-07-31T11:36:19;6.38;;;5.78;;
22652;SDS011;11493;43.344;26.226;2023-07-31T11:38:47;6.32;;;5.93;;
22652;SDS011;11493;43.344;26.226;2023-07-31T11:41:15;5.82;;;5.43;;
22652;SDS011;11493;43.344;26.226;2023-07-31T11:43:43;5.97;;;5.38;;
22652;SDS011;11493;43.344;26.226;2023-07-31T11:46:14;5.93;;;5.35;;
22652;SDS011;11493;43.344;26.226;2023-07-31T11:48:42;5.75;;;5.32;;
22652;SDS011;11493;43.344;26.226;2023-07-31T11:51:10;6.60;;;5.45;;
22652;SDS011;11493;43.344;26.226;2023-07-31T11:53:51;9.23;;;5.15;;
22652;SDS011;11493;43.344;26.226;2023-07-31T11:56:20;5.93;;;5.32;;
22652;SDS011;11493;43.344;26.226;2023-07-31T11:58:50;6.07;;;5.68;;
22652;SDS011;11493;43.344;26.226;2023-07-31T12:01:20;6.20;;;5.80;;
22652;SDS011;11493;43.344;26.226;2023-07-31T12:03:49;8.63;;;7.57;;
22652;SDS011;11493;43.344;26.226;2023-07-31T12:06:17;8.60;;;7.80;;
22652;SDS011;11493;43.344;26.226;2023-07-31T12:08:47;8.73;;;8.13;;
22652;SDS011;11493;43.344;26.226;2023-07-31T12:11:15;8.32;;;7.57;;
22652;SDS011;11493;43.344;26.226;2023-07-31T12:13:44;7.97;;;7.28;;
22652;SDS011;11493;43.344;26.226;2023-07-31T12:16:11;8.40;;;7.78;;
22652;SDS011;11493;43.344;26.226;2023-07-31T12:18:39;9.35;;;8.55;;
22652;SDS011;11493;43.344;26.226;2023-07-31T12:21:07;9.50;;;8.80;;
22652;SDS011;11493;43.344;26.226;2023-07-31T12:23:36;10.55;;;8.88;;
22652;SDS011;11493;43.344;26.226;2023-07-31T12:26:08;10.25;;;9.18;;
22652;SDS011;11493;43.344;26.226;2023-07-31T12:28:43;11.48;;;10.55;;
22652;SDS011;11493;43.344;26.226;2023-07-31T12:31:12;13.00;;;10.00;;
22652;SDS011;11493;43.344;26.226;2023-07-31T12:33:41;12.82;;;11.75;;
22652;SDS011;11493;43.344;26.226;2023-07-31T12:36:12;14.85;;;13.48;;
22652;SDS011;11493;43.344;26.226;2023-07-31T12:38:45;15.75;;;14.35;;
22652;SDS011;11493;43.344;26.226;2023-07-31T12:41:13;16.48;;;14.80;;
22652;SDS011;11493;43.344;26.226;2023-07-31T12:43:40;15.75;;;14.30;;
22652;SDS011;11493;43.344;26.226;2023-07-31T12:46:08;17.05;;;15.65;;
22652;SDS011;11493;43.344;26.226;2023-07-31T12:48:37;13.18;;;11.85;;
22652;SDS011;11493;43.344;26.226;2023-07-31T12:51:05;9.95;;;9.02;;
22652;SDS011;11493;43.344;26.226;2023-07-31T12:53:39;8.10;;;7.60;;
22652;SDS011;11493;43.344;26.226;2023-07-31T12:56:07;12.25;;;8.02;;
22652;SDS011;11493;43.344;26.226;2023-07-31T12:58:38;8.98;;;8.07;;
22652;SDS011;11493;43.344;26.226;2023-07-31T13:01:05;9.18;;;8.38;;
22652;SDS011;11493;43.344;26.226;2023-07-31T13:03:33;10.60;;;8.25;;
22652;SDS011;11493;43.344;26.226;2023-07-31T13:06:00;11.90;;;10.23;;
22652;SDS011;11493;43.344;26.226;2023-07-31T13:08:28;9.80;;;9.00;;
22652;SDS011;11493;43.344;26.226;2023-07-31T13:10:55;9.77;;;8.43;;
22652;SDS011;11493;43.344;26.226;2023-07-31T13:13:23;9.00;;;8.15;;
22652;SDS011;11493;43.344;26.226;2023-07-31T13:15:50;9.57;;;8.77;;
22652;SDS011;11493;43.344;26.226;2023-07-31T13:18:17;8.43;;;7.68;;
22652;SDS011;11493;43.344;26.226;2023-07-31T13:20:44;8.45;;;7.63;;
22652;SDS011;11493;43.344;26.226;2023-07-31T13:23:12;9.25;;;8.40;;
22652;SDS011;11493;43.344;26.226;2023-07-31T13:25:39;9.35;;;8.55;;
22652;SDS011;11493;43.344;26.226;2023-07-31T13:28:06;8.60;;;7.97;;
22652;SDS011;11493;43.344;26.226;2023-07-31T13:30:34;9.23;;;8.00;;
22652;SDS011;11493;43.344;26.226;2023-07-31T13:33:01;8.52;;;7.75;;
22652;SDS011;11493;43.344;26.226;2023-07-31T13:35:29;9.75;;;7.35;;
22652;SDS011;11493;43.344;26.226;2023-07-31T13:38:01;9.25;;;8.55;;
22652;SDS011;11493;43.344;26.226;2023-07-31T13:40:28;15.90;;;8.98;;
22652;SDS011;11493;43.344;26.226;2023-07-31T13:42:55;9.10;;;8.27;;
22652;SDS011;11493;43.344;26.226;2023-07-31T13:45:23;8.45;;;7.85;;
22652;SDS011;11493;43.344;26.226;2023-07-31T13:47:50;8.90;;;8.05;;
22652;SDS011;11493;43.344;26.226;2023-07-31T13:50:18;9.07;;;8.35;;
22652;SDS011;11493;43.344;26.226;2023-07-31T13:52:47;9.25;;;8.45;;
22652;SDS011;11493;43.344;26.226;2023-07-31T13:55:15;8.82;;;7.53;;
22652;SDS011;11493;43.344;26.226;2023-07-31T13:57:42;11.02;;;8.32;;
22652;SDS011;11493;43.344;26.226;2023-07-31T14:00:09;8.85;;;8.25;;
22652;SDS011;11493;43.344;26.226;2023-07-31T14:02:37;9.38;;;8.68;;
22652;SDS011;11493;43.344;26.226;2023-07-31T14:05:05;10.00;;;9.07;;
22652;SDS011;11493;43.344;26.226;2023-07-31T14:07:32;9.57;;;8.60;;
22652;SDS011;11493;43.344;26.226;2023-07-31T14:09:59;9.32;;;8.60;;
22652;SDS011;11493;43.344;26.226;2023-07-31T14:12:26;8.57;;;7.90;;
22652;SDS011;11493;43.344;26.226;2023-07-31T14:15:09;10.85;;;8.77;;
22652;SDS011;11493;43.344;26.226;2023-07-31T14:17:38;9.30;;;8.45;;
22652;SDS011;11493;43.344;26.226;2023-07-31T14:20:06;15.35;;;8.68;;
22652;SDS011;11493;43.344;26.226;2023-07-31T14:22:34;9.88;;;8.88;;
22652;SDS011;11493;43.344;26.226;2023-07-31T14:25:01;9.68;;;8.73;;
22652;SDS011;11493;43.344;26.226;2023-07-31T14:27:28;9.90;;;8.95;;
22652;SDS011;11493;43.344;26.226;2023-07-31T14:29:56;10.90;;;9.23;;
22652;SDS011;11493;43.344;26.226;2023-07-31T14:32:24;9.50;;;8.80;;
22652;SDS011;11493;43.344;26.226;2023-07-31T14:34:52;8.82;;;8.13;;
22652;SDS011;11493;43.344;26.226;2023-07-31T14:37:21;9.25;;;8.45;;
22652;SDS011;11493;43.344;26.226;2023-07-31T14:39:48;16.48;;;9.07;;
22652;SDS011;11493;43.344;26.226;2023-07-31T14:42:17;9.20;;;8.45;;
22652;SDS011;11493;43.344;26.226;2023-07-31T14:44:46;9.88;;;9.10;;
22652;SDS011;11493;43.344;26.226;2023-07-31T14:47:14;12.18;;;8.95;;
22652;SDS011;11493;43.344;26.226;2023-07-31T14:49:41;10.02;;;9.13;;